sensor_id;sensor_type;location;lat;lon;timestamp;pressure;altitude;pressure_sealevel;temperature;humidity
26436;BME280;15351;52.408;16.826;2023-04-07T01:44:30;101124.90;;;7.16;64.01
26436;BME280;15351;52.408;16.826;2023-04-07T02:05:42;101110.20;;;7.05;64.07
26436;BME280;15351;52.408;16.826;2023-04-07T02:16:27;101101.13;;;7.00;64.72
26436;BME280;15351;52.408;16.826;2023-04-07T02:50:23;101080.35;;;6.95;66.02
26436;BME280;15351;52.408;16.826;2023-04-07T03:20:06;101061.63;;;6.76;67.20
26436;BME280;15351;52.408;16.826;2023-04-07T03:24:00;101061.23;;;6.74;67.46
26436;BME280;15351;52.408;16.826;2023-04-07T03:29:55;101064.64;;;6.74;67.73
26436;BME280;15351;52.408;16.826;2023-04-07T03:51:03;101042.91;;;6.71;68.37
26436;BME280;15351;52.408;16.826;2023-04-07T03:54:41;101046.70;;;6.73;68.27
26436;BME280;15351;52.408;16.826;2023-04-07T03:58:30;101042.84;;;6.68;68.27
26436;BME280;15351;52.408;16.826;2023-04-07T04:02:09;101040.08;;;6.69;68.62
26436;BME280;15351;52.408;16.826;2023-04-07T04:05:27;101037.20;;;6.71;68.62
26436;BME280;15351;52.408;16.826;2023-04-07T04:08:45;101039.86;;;6.69;68.60
26436;BME280;15351;52.408;16.826;2023-04-07T04:16:31;101034.38;;;6.72;68.95
26436;BME280;15351;52.408;16.826;2023-04-07T04:20:03;101030.57;;;6.73;68.80
26436;BME280;15351;52.408;16.826;2023-04-07T04:23:31;101032.30;;;6.74;68.81
26436;BME280;15351;52.408;16.826;2023-04-07T04:29:57;101039.23;;;6.74;69.20
26436;BME280;15351;52.408;16.826;2023-04-07T04:32:55;101044.07;;;6.72;69.28
26436;BME280;15351;52.408;16.826;2023-04-07T04:36:41;101037.55;;;6.71;69.18
26436;BME280;15351;52.408;16.826;2023-04-07T04:40:17;101038.42;;;6.73;69.47
26436;BME280;15351;52.408;16.826;2023-04-07T04:49:43;101043.86;;;6.73;69.44
26436;BME280;15351;52.408;16.826;2023-04-07T04:52:56;101045.84;;;6.72;69.91
26436;BME280;15351;52.408;16.826;2023-04-07T04:59:17;101042.34;;;6.71;70.11
26436;BME280;15351;52.408;16.826;2023-04-07T05:02:42;101041.35;;;6.73;70.37
26436;BME280;15351;52.408;16.826;2023-04-07T05:05:35;101041.25;;;6.76;70.77
26436;BME280;15351;52.408;16.826;2023-04-07T05:09:00;101036.23;;;6.80;70.73
26436;BME280;15351;52.408;16.826;2023-04-07T05:12:08;101034.92;;;6.82;70.59
26436;BME280;15351;52.408;16.826;2023-04-07T05:15:17;101036.14;;;6.84;70.76
26436;BME280;15351;52.408;16.826;2023-04-07T05:18:08;101036.63;;;6.88;70.79
26436;BME280;15351;52.408;16.826;2023-04-07T05:20:56;101043.21;;;6.93;70.63
26436;BME280;15351;52.408;16.826;2023-04-07T05:23:40;101040.42;;;6.90;70.46
26436;BME280;15351;52.408;16.826;2023-04-07T05:26:28;101044.79;;;6.89;70.83
26436;BME280;15351;52.408;16.826;2023-04-07T05:29:58;101039.82;;;6.92;71.02
26436;BME280;15351;52.408;16.826;2023-04-07T05:32:42;101043.73;;;6.93;71.10
26436;BME280;15351;52.408;16.826;2023-04-07T05:35:23;101044.59;;;6.91;71.02
26436;BME280;15351;52.408;16.826;2023-04-07T05:38:04;101041.71;;;6.93;71.06
26436;BME280;15351;52.408;16.826;2023-04-07T05:41:04;101042.30;;;6.96;71.28
26436;BME280;15351;52.408;16.826;2023-04-07T05:44:01;101039.17;;;7.01;71.52
26436;BME280;15351;52.408;16.826;2023-04-07T05:46:39;101042.90;;;7.05;71.40
26436;BME280;15351;52.408;16.826;2023-04-07T05:52:08;101036.65;;;7.04;71.50
26436;BME280;15351;52.408;16.826;2023-04-07T05:54:38;101036.27;;;7.07;71.43
26436;BME280;15351;52.408;16.826;2023-04-07T05:57:29;101041.60;;;7.13;71.38
26436;BME280;15351;52.408;16.826;2023-04-07T06:00:01;101046.92;;;7.16;71.14
26436;BME280;15351;52.408;16.826;2023-04-07T06:03:08;101041.15;;;7.14;70.98
26436;BME280;15351;52.408;16.826;2023-04-07T06:08:44;101042.81;;;7.12;71.11
26436;BME280;15351;52.408;16.826;2023-04-07T06:11:22;101036.54;;;7.14;71.07
26436;BME280;15351;52.408;16.826;2023-04-07T06:14:08;101040.69;;;7.12;70.85
26436;BME280;15351;52.408;16.826;2023-04-07T06:17:02;101043.80;;;7.11;70.89
26436;BME280;15351;52.408;16.826;2023-04-07T06:19:56;101045.86;;;7.10;71.17
26436;BME280;15351;52.408;16.826;2023-04-07T06:23:11;101046.06;;;7.10;71.33
26436;BME280;15351;52.408;16.826;2023-04-07T06:26:20;101051.90;;;7.08;71.03
26436;BME280;15351;52.408;16.826;2023-04-07T06:29:25;101048.52;;;7.08;71.18
26436;BME280;15351;52.408;16.826;2023-04-07T06:32:17;101040.79;;;7.11;71.37
26436;BME280;15351;52.408;16.826;2023-04-07T06:34:53;101041.54;;;7.12;71.28
26436;BME280;15351;52.408;16.826;2023-04-07T06:37:57;101044.73;;;7.11;71.27
26436;BME280;15351;52.408;16.826;2023-04-07T06:44:42;101044.50;;;7.17;71.63
26436;BME280;15351;52.408;16.826;2023-04-07T06:47:41;101044.16;;;7.19;71.80
26436;BME280;15351;52.408;16.826;2023-04-07T06:50:36;101042.18;;;7.21;71.59
26436;BME280;15351;52.408;16.826;2023-04-07T06:53:26;101042.67;;;7.25;71.79
26436;BME280;15351;52.408;16.826;2023-04-07T06:56:26;101039.25;;;7.27;71.88
26436;BME280;15351;52.408;16.826;2023-04-07T06:59:35;101033.03;;;7.28;71.95
26436;BME280;15351;52.408;16.826;2023-04-07T07:02:26;101031.87;;;7.27;71.81
26436;BME280;15351;52.408;16.826;2023-04-07T07:05:27;101035.88;;;7.28;71.88
26436;BME280;15351;52.408;16.826;2023-04-07T07:11:47;101042.17;;;7.29;71.96
26436;BME280;15351;52.408;16.826;2023-04-07T07:14:44;101044.58;;;7.27;71.97
26436;BME280;15351;52.408;16.826;2023-04-07T07:17:24;101047.46;;;7.27;72.14
26436;BME280;15351;52.408;16.826;2023-04-07T07:20:18;101041.64;;;7.29;72.45
26436;BME280;15351;52.408;16.826;2023-04-07T07:23:46;101038.70;;;7.30;72.62
26436;BME280;15351;52.408;16.826;2023-04-07T07:26:51;101036.80;;;7.31;72.46
26436;BME280;15351;52.408;16.826;2023-04-07T07:29:41;101033.63;;;7.35;72.52
26436;BME280;15351;52.408;16.826;2023-04-07T07:36:00;101040.92;;;7.41;72.78
26436;BME280;15351;52.408;16.826;2023-04-07T07:38:41;101046.72;;;7.41;72.47
26436;BME280;15351;52.408;16.826;2023-04-07T07:41:20;101051.32;;;7.41;72.52
26436;BME280;15351;52.408;16.826;2023-04-07T07:43:47;101051.93;;;7.44;72.69
26436;BME280;15351;52.408;16.826;2023-04-07T07:46:19;101054.89;;;7.48;72.78
26436;BME280;15351;52.408;16.826;2023-04-07T07:49:00;101054.49;;;7.51;72.77
26436;BME280;15351;52.408;16.826;2023-04-07T07:55:11;101055.48;;;7.49;72.71
26436;BME280;15351;52.408;16.826;2023-04-07T07:58:05;101056.92;;;7.53;72.81
26436;BME280;15351;52.408;16.826;2023-04-07T08:00:45;101052.48;;;7.55;72.82
26436;BME280;15351;52.408;16.826;2023-04-07T08:03:43;101050.70;;;7.55;72.73
26436;BME280;15351;52.408;16.826;2023-04-07T08:07:02;101049.37;;;7.56;72.88
26436;BME280;15351;52.408;16.826;2023-04-07T08:09:53;101053.63;;;7.58;73.11
26436;BME280;15351;52.408;16.826;2023-04-07T08:12:48;101055.15;;;7.63;73.25
26436;BME280;15351;52.408;16.826;2023-04-07T08:15:19;101047.70;;;7.58;73.17
26436;BME280;15351;52.408;16.826;2023-04-07T08:18:19;101057.54;;;7.65;73.30
26436;BME280;15351;52.408;16.826;2023-04-07T08:21:17;101055.73;;;7.64;73.31
26436;BME280;15351;52.408;16.826;2023-04-07T08:24:36;101057.33;;;7.68;73.78
26436;BME280;15351;52.408;16.826;2023-04-07T08:28:27;101053.77;;;7.73;73.39
26436;BME280;15351;52.408;16.826;2023-04-07T08:31:51;101046.73;;;7.72;73.32
26436;BME280;15351;52.408;16.826;2023-04-07T08:35:08;101055.02;;;7.78;73.46
26436;BME280;15351;52.408;16.826;2023-04-07T08:42:17;101065.21;;;7.84;73.53
26436;BME280;15351;52.408;16.826;2023-04-07T08:45:06;101065.80;;;7.86;73.54
26436;BME280;15351;52.408;16.826;2023-04-07T08:47:50;101069.38;;;7.86;73.72
26436;BME280;15351;52.408;16.826;2023-04-07T08:50:43;101072.31;;;7.87;73.83
26436;BME280;15351;52.408;16.826;2023-04-07T08:53:35;101074.20;;;7.86;73.66
26436;BME280;15351;52.408;16.826;2023-04-07T08:59:36;101069.38;;;7.91;73.64
26436;BME280;15351;52.408;16.826;2023-04-07T09:02:21;101063.30;;;7.91;73.59
26436;BME280;15351;52.408;16.826;2023-04-07T09:04:48;101065.50;;;7.90;73.64
26436;BME280;15351;52.408;16.826;2023-04-07T09:07:14;101070.45;;;7.91;73.59
26436;BME280;15351;52.408;16.826;2023-04-07T09:09:42;101061.62;;;7.93;73.76
26436;BME280;15351;52.408;16.826;2023-04-07T09:12:09;101057.18;;;7.97;74.00
26436;BME280;15351;52.408;16.826;2023-04-07T09:14:58;101059.45;;;7.97;74.00
26436;BME280;15351;52.408;16.826;2023-04-07T09:17:26;101057.54;;;8.01;74.05
26436;BME280;15351;52.408;16.826;2023-04-07T09:20:00;101059.33;;;8.03;73.95
26436;BME280;15351;52.408;16.826;2023-04-07T09:22:43;101058.67;;;8.06;74.19
26436;BME280;15351;52.408;16.826;2023-04-07T09:25:23;101052.58;;;8.08;74.22
26436;BME280;15351;52.408;16.826;2023-04-07T09:28:10;101055.83;;;8.09;74.23
26436;BME280;15351;52.408;16.826;2023-04-07T09:31:18;101056.17;;;8.15;74.29
26436;BME280;15351;52.408;16.826;2023-04-07T09:34:00;101057.30;;;8.19;74.36
26436;BME280;15351;52.408;16.826;2023-04-07T09:37:06;101056.05;;;8.23;74.37
26436;BME280;15351;52.408;16.826;2023-04-07T09:39:57;101054.96;;;8.25;74.38
26436;BME280;15351;52.408;16.826;2023-04-07T09:42:48;101050.94;;;8.27;74.27
26436;BME280;15351;52.408;16.826;2023-04-07T09:45:41;101048.75;;;8.30;74.13
26436;BME280;15351;52.408;16.826;2023-04-07T09:48:44;101052.30;;;8.26;74.10
26436;BME280;15351;52.408;16.826;2023-04-07T09:51:19;101049.45;;;8.26;74.34
26436;BME280;15351;52.408;16.826;2023-04-07T09:53:54;101048.84;;;8.27;74.29
26436;BME280;15351;52.408;16.826;2023-04-07T09:56:36;101048.14;;;8.29;74.25
26436;BME280;15351;52.408;16.826;2023-04-07T09:59:52;101043.62;;;8.31;74.33
26436;BME280;15351;52.408;16.826;2023-04-07T10:03:08;101041.80;;;8.31;74.45
26436;BME280;15351;52.408;16.826;2023-04-07T10:16:59;101031.20;;;8.55;75.20
26436;BME280;15351;52.408;16.826;2023-04-07T10:35:12;101028.00;;;8.69;75.12
26436;BME280;15351;52.408;16.826;2023-04-07T10:38:10;101028.12;;;8.71;75.05
26436;BME280;15351;52.408;16.826;2023-04-07T10:40:39;101024.30;;;8.75;75.00
26436;BME280;15351;52.408;16.826;2023-04-07T10:43:36;101019.05;;;8.75;75.13
26436;BME280;15351;52.408;16.826;2023-04-07T10:46:24;101022.36;;;8.80;75.29
26436;BME280;15351;52.408;16.826;2023-04-07T10:49:14;101016.83;;;8.82;75.09
26436;BME280;15351;52.408;16.826;2023-04-07T10:52:35;101014.80;;;8.84;75.10
26436;BME280;15351;52.408;16.826;2023-04-07T11:13:19;101024.52;;;8.94;75.67
26436;BME280;15351;52.408;16.826;2023-04-07T11:16:17;101024.41;;;8.97;75.63
26436;BME280;15351;52.408;16.826;2023-04-07T11:19:52;101026.03;;;9.03;75.64
26436;BME280;15351;52.408;16.826;2023-04-07T11:34:03;101020.58;;;9.23;75.63
26436;BME280;15351;52.408;16.826;2023-04-07T11:36:38;101018.98;;;9.25;75.48
26436;BME280;15351;52.408;16.826;2023-04-07T11:43:46;101017.31;;;9.31;75.51
26436;BME280;15351;52.408;16.826;2023-04-07T11:50:39;101011.92;;;9.29;75.49
26436;BME280;15351;52.408;16.826;2023-04-07T11:53:35;101011.41;;;9.29;75.67
26436;BME280;15351;52.408;16.826;2023-04-07T11:56:45;101002.67;;;9.26;75.66
26436;BME280;15351;52.408;16.826;2023-04-07T11:59:48;101002.40;;;9.26;75.68
26436;BME280;15351;52.408;16.826;2023-04-07T12:06:37;101001.86;;;9.31;76.00
26436;BME280;15351;52.408;16.826;2023-04-07T12:09:52;101003.66;;;9.32;76.10
26436;BME280;15351;52.408;16.826;2023-04-07T12:12:28;101004.33;;;9.40;76.02
26436;BME280;15351;52.408;16.826;2023-04-07T12:15:07;101001.12;;;9.43;75.96
26436;BME280;15351;52.408;16.826;2023-04-07T12:17:34;101001.70;;;9.45;76.03
26436;BME280;15351;52.408;16.826;2023-04-07T12:20:22;100999.67;;;9.43;75.97
26436;BME280;15351;52.408;16.826;2023-04-07T12:26:04;100998.41;;;9.45;75.88
26436;BME280;15351;52.408;16.826;2023-04-07T12:29:08;100998.70;;;9.47;76.10
26436;BME280;15351;52.408;16.826;2023-04-07T12:31:38;100995.70;;;9.47;76.10
26436;BME280;15351;52.408;16.826;2023-04-07T12:34:05;100999.02;;;9.46;76.42
26436;BME280;15351;52.408;16.826;2023-04-07T12:36:41;100996.58;;;9.48;76.58
26436;BME280;15351;52.408;16.826;2023-04-07T12:39:08;100996.23;;;9.50;76.29
26436;BME280;15351;52.408;16.826;2023-04-07T12:41:35;101001.42;;;9.52;76.21
26436;BME280;15351;52.408;16.826;2023-04-07T12:44:04;101004.05;;;9.54;76.31
26436;BME280;15351;52.408;16.826;2023-04-07T12:46:30;101003.61;;;9.57;76.35
26436;BME280;15351;52.408;16.826;2023-04-07T12:49:03;100999.81;;;9.57;76.03
26436;BME280;15351;52.408;16.826;2023-04-07T12:51:42;101003.87;;;9.56;75.90
26436;BME280;15351;52.408;16.826;2023-04-07T12:54:41;101002.67;;;9.52;75.97
26436;BME280;15351;52.408;16.826;2023-04-07T12:57:15;101004.27;;;9.46;75.73
26436;BME280;15351;52.408;16.826;2023-04-07T12:59:49;101003.89;;;9.41;76.04
26436;BME280;15351;52.408;16.826;2023-04-07T13:02:44;101004.14;;;9.42;76.27
26436;BME280;15351;52.408;16.826;2023-04-07T13:05:43;100996.98;;;9.45;76.52
26436;BME280;15351;52.408;16.826;2023-04-07T13:08:23;100998.98;;;9.49;76.40
26436;BME280;15351;52.408;16.826;2023-04-07T13:10:57;100992.45;;;9.48;76.30
26436;BME280;15351;52.408;16.826;2023-04-07T13:13:23;100994.86;;;9.48;76.41
26436;BME280;15351;52.408;16.826;2023-04-07T13:16:14;100994.71;;;9.51;76.63
26436;BME280;15351;52.408;16.826;2023-04-07T13:19:14;100996.66;;;9.54;76.56
26436;BME280;15351;52.408;16.826;2023-04-07T13:21:47;100991.94;;;9.51;76.68
26436;BME280;15351;52.408;16.826;2023-04-07T13:24:36;100996.39;;;9.55;76.93
26436;BME280;15351;52.408;16.826;2023-04-07T13:27:03;100995.88;;;9.57;76.86
26436;BME280;15351;52.408;16.826;2023-04-07T13:29:33;100996.88;;;9.56;76.86
26436;BME280;15351;52.408;16.826;2023-04-07T13:32:09;100996.27;;;9.53;76.85
26436;BME280;15351;52.408;16.826;2023-04-07T13:35:04;100992.60;;;9.47;76.85
26436;BME280;15351;52.408;16.826;2023-04-07T13:37:36;100989.43;;;9.51;77.33
26436;BME280;15351;52.408;16.826;2023-04-07T13:40:18;100988.36;;;9.57;77.19
26436;BME280;15351;52.408;16.826;2023-04-07T13:42:57;100991.29;;;9.56;77.06
26436;BME280;15351;52.408;16.826;2023-04-07T13:46:00;100985.85;;;9.60;77.14
26436;BME280;15351;52.408;16.826;2023-04-07T13:49:14;100983.71;;;9.67;77.29
26436;BME280;15351;52.408;16.826;2023-04-07T13:52:08;100983.80;;;9.76;77.23
26436;BME280;15351;52.408;16.826;2023-04-07T13:54:58;100978.39;;;9.79;76.95
26436;BME280;15351;52.408;16.826;2023-04-07T14:01:10;100976.11;;;9.81;76.82
26436;BME280;15351;52.408;16.826;2023-04-07T14:04:07;100982.23;;;9.82;77.00
26436;BME280;15351;52.408;16.826;2023-04-07T14:06:43;100976.83;;;9.86;77.22
26436;BME280;15351;52.408;16.826;2023-04-07T14:09:19;100977.86;;;9.88;77.08
26436;BME280;15351;52.408;16.826;2023-04-07T14:11:49;100973.77;;;9.90;77.15
26436;BME280;15351;52.408;16.826;2023-04-07T14:14:36;100968.66;;;9.92;77.04
26436;BME280;15351;52.408;16.826;2023-04-07T14:17:24;100971.56;;;9.94;77.05
26436;BME280;15351;52.408;16.826;2023-04-07T14:23:59;100970.25;;;10.02;77.22
26436;BME280;15351;52.408;16.826;2023-04-07T14:26:57;100970.99;;;10.00;77.15
26436;BME280;15351;52.408;16.826;2023-04-07T14:33:31;100968.63;;;10.02;77.31
26436;BME280;15351;52.408;16.826;2023-04-07T14:44:01;100967.99;;;9.94;77.27
26436;BME280;15351;52.408;16.826;2023-04-07T14:54:06;100968.42;;;9.98;77.76
26436;BME280;15351;52.408;16.826;2023-04-07T15:00:35;100963.66;;;10.05;77.62
26436;BME280;15351;52.408;16.826;2023-04-07T15:03:26;100964.80;;;10.06;77.74
26436;BME280;15351;52.408;16.826;2023-04-07T15:07:49;100967.92;;;10.08;77.75
26436;BME280;15351;52.408;16.826;2023-04-07T15:14:53;100969.31;;;10.09;77.64
26436;BME280;15351;52.408;16.826;2023-04-07T15:22:20;100961.18;;;10.19;77.56
26436;BME280;15351;52.408;16.826;2023-04-07T15:36:42;100966.20;;;10.26;77.67
26436;BME280;15351;52.408;16.826;2023-04-07T15:39:46;100967.28;;;10.26;77.54
26436;BME280;15351;52.408;16.826;2023-04-07T15:43:17;100966.08;;;10.22;77.61
26436;BME280;15351;52.408;16.826;2023-04-07T15:46:41;100962.05;;;10.23;77.76
26436;BME280;15351;52.408;16.826;2023-04-07T15:50:24;100967.83;;;10.28;77.84
26436;BME280;15351;52.408;16.826;2023-04-07T15:53:34;100963.98;;;10.28;77.75
26436;BME280;15351;52.408;16.826;2023-04-07T15:56:29;100958.67;;;10.25;77.77
26436;BME280;15351;52.408;16.826;2023-04-07T15:59:30;100963.41;;;10.32;77.96
26436;BME280;15351;52.408;16.826;2023-04-07T16:02:32;100960.77;;;10.35;77.94
26436;BME280;15351;52.408;16.826;2023-04-07T16:06:04;100958.58;;;10.35;78.09
26436;BME280;15351;52.408;16.826;2023-04-07T16:09:39;100967.52;;;10.36;77.92
26436;BME280;15351;52.408;16.826;2023-04-07T16:21:54;100968.02;;;10.27;78.32
26436;BME280;15351;52.408;16.826;2023-04-07T16:24:47;100970.30;;;10.30;78.38
26436;BME280;15351;52.408;16.826;2023-04-07T16:27:46;100967.01;;;10.36;78.56
26436;BME280;15351;52.408;16.826;2023-04-07T16:30:37;100966.48;;;10.43;78.70
26436;BME280;15351;52.408;16.826;2023-04-07T16:33:59;100966.73;;;10.45;78.42
26436;BME280;15351;52.408;16.826;2023-04-07T16:37:17;100964.64;;;10.46;78.12
26436;BME280;15351;52.408;16.826;2023-04-07T16:40:38;100960.98;;;10.49;78.33
26436;BME280;15351;52.408;16.826;2023-04-07T16:47:09;100957.09;;;10.50;78.62
26436;BME280;15351;52.408;16.826;2023-04-07T16:49:36;100960.98;;;10.52;78.25
26436;BME280;15351;52.408;16.826;2023-04-07T16:52:23;100964.19;;;10.51;78.29
26436;BME280;15351;52.408;16.826;2023-04-07T16:54:53;100967.52;;;10.53;78.25
26436;BME280;15351;52.408;16.826;2023-04-07T17:00:21;100971.76;;;10.60;78.28
26436;BME280;15351;52.408;16.826;2023-04-07T17:02:48;100971.69;;;10.59;78.21
26436;BME280;15351;52.408;16.826;2023-04-07T17:05:22;100969.21;;;10.57;78.13
26436;BME280;15351;52.408;16.826;2023-04-07T17:08:12;100973.70;;;10.59;78.37
26436;BME280;15351;52.408;16.826;2023-04-07T17:10:44;100972.80;;;10.59;78.21
26436;BME280;15351;52.408;16.826;2023-04-07T17:13:13;100969.98;;;10.59;78.46
26436;BME280;15351;52.408;16.826;2023-04-07T17:15:43;100976.82;;;10.60;78.44
26436;BME280;15351;52.408;16.826;2023-04-07T17:18:22;100983.39;;;10.62;78.24
26436;BME280;15351;52.408;16.826;2023-04-07T17:21:00;100983.96;;;10.59;78.28
26436;BME280;15351;52.408;16.826;2023-04-07T17:23:33;100990.89;;;10.63;78.34
26436;BME280;15351;52.408;16.826;2023-04-07T17:26:08;100992.35;;;10.63;78.31
26436;BME280;15351;52.408;16.826;2023-04-07T17:28:35;100994.86;;;10.66;78.42
26436;BME280;15351;52.408;16.826;2023-04-07T17:31:02;100996.42;;;10.63;78.28
26436;BME280;15351;52.408;16.826;2023-04-07T17:33:28;101002.73;;;10.67;78.40
26436;BME280;15351;52.408;16.826;2023-04-07T17:35:55;101006.24;;;10.69;78.37
26436;BME280;15351;52.408;16.826;2023-04-07T17:38:26;101005.10;;;10.71;78.26
26436;BME280;15351;52.408;16.826;2023-04-07T17:40:57;101009.19;;;10.75;78.37
26436;BME280;15351;52.408;16.826;2023-04-07T17:43:23;101005.35;;;10.77;78.38
26436;BME280;15351;52.408;16.826;2023-04-07T17:45:50;101012.52;;;10.78;78.16
26436;BME280;15351;52.408;16.826;2023-04-07T17:48:20;101013.71;;;10.75;78.11
26436;BME280;15351;52.408;16.826;2023-04-07T17:50:51;101012.83;;;10.75;78.19
26436;BME280;15351;52.408;16.826;2023-04-07T17:53:30;101016.75;;;10.75;78.34
26436;BME280;15351;52.408;16.826;2023-04-07T17:56:08;101012.73;;;10.77;78.41
26436;BME280;15351;52.408;16.826;2023-04-07T17:58:42;101018.49;;;10.71;78.18
26436;BME280;15351;52.408;16.826;2023-04-07T18:01:11;101018.52;;;10.67;78.34
26436;BME280;15351;52.408;16.826;2023-04-07T18:03:46;101011.48;;;10.69;78.34
26436;BME280;15351;52.408;16.826;2023-04-07T18:09:48;101020.75;;;10.73;78.64
26436;BME280;15351;52.408;16.826;2023-04-07T18:12:14;101025.83;;;10.76;78.52
26436;BME280;15351;52.408;16.826;2023-04-07T18:14:46;101029.51;;;10.78;78.32
26436;BME280;15351;52.408;16.826;2023-04-07T18:17:15;101028.90;;;10.79;78.45
26436;BME280;15351;52.408;16.826;2023-04-07T18:19:41;101033.38;;;10.79;78.36
26436;BME280;15351;52.408;16.826;2023-04-07T18:22:08;101032.08;;;10.81;78.48
26436;BME280;15351;52.408;16.826;2023-04-07T18:24:40;101032.24;;;10.83;78.49
26436;BME280;15351;52.408;16.826;2023-04-07T18:27:09;101035.05;;;10.83;78.64
26436;BME280;15351;52.408;16.826;2023-04-07T18:29:36;101035.27;;;10.80;78.57
26436;BME280;15351;52.408;16.826;2023-04-07T18:32:05;101037.30;;;10.81;78.47
26436;BME280;15351;52.408;16.826;2023-04-07T18:34:35;101042.33;;;10.81;78.55
26436;BME280;15351;52.408;16.826;2023-04-07T18:37:08;101044.63;;;10.81;78.70
26436;BME280;15351;52.408;16.826;2023-04-07T18:39:43;101045.85;;;10.85;78.82
26436;BME280;15351;52.408;16.826;2023-04-07T18:42:15;101044.08;;;10.86;78.62
26436;BME280;15351;52.408;16.826;2023-04-07T18:44:50;101042.51;;;10.84;78.70
26436;BME280;15351;52.408;16.826;2023-04-07T18:47:22;101054.31;;;10.83;78.57
26436;BME280;15351;52.408;16.826;2023-04-07T18:49:48;101053.13;;;10.81;78.66
26436;BME280;15351;52.408;16.826;2023-04-07T18:52:28;101053.87;;;10.82;78.85
26436;BME280;15351;52.408;16.826;2023-04-07T18:55:13;101056.38;;;10.84;78.80
26436;BME280;15351;52.408;16.826;2023-04-07T19:02:57;101056.72;;;10.80;78.76
26436;BME280;15351;52.408;16.826;2023-04-07T19:05:31;101054.98;;;10.77;79.11
26436;BME280;15351;52.408;16.826;2023-04-07T19:07:59;101060.72;;;10.82;79.23
26436;BME280;15351;52.408;16.826;2023-04-07T19:10:39;101068.72;;;10.86;79.39
26436;BME280;15351;52.408;16.826;2023-04-07T19:13:11;101077.84;;;10.88;79.02
26436;BME280;15351;52.408;16.826;2023-04-07T19:15:51;101084.24;;;10.86;79.13
26436;BME280;15351;52.408;16.826;2023-04-07T19:18:17;101086.44;;;10.86;79.11
26436;BME280;15351;52.408;16.826;2023-04-07T19:20:44;101084.11;;;10.87;79.28
26436;BME280;15351;52.408;16.826;2023-04-07T19:23:10;101091.45;;;10.91;79.43
26436;BME280;15351;52.408;16.826;2023-04-07T19:25:36;101095.33;;;10.93;79.13
26436;BME280;15351;52.408;16.826;2023-04-07T19:28:48;101094.36;;;10.94;79.11
26436;BME280;15351;52.408;16.826;2023-04-07T19:31:17;101095.94;;;10.92;79.32
26436;BME280;15351;52.408;16.826;2023-04-07T19:33:43;101095.42;;;10.91;79.31
26436;BME280;15351;52.408;16.826;2023-04-07T19:36:13;101097.28;;;10.90;79.36
26436;BME280;15351;52.408;16.826;2023-04-07T19:38:40;101099.08;;;10.93;79.18
26436;BME280;15351;52.408;16.826;2023-04-07T19:41:07;101090.64;;;10.95;79.17
26436;BME280;15351;52.408;16.826;2023-04-07T19:43:38;101090.28;;;10.97;79.42
26436;BME280;15351;52.408;16.826;2023-04-07T19:46:07;101092.75;;;10.99;79.32
26436;BME280;15351;52.408;16.826;2023-04-07T19:48:38;101096.98;;;11.01;79.37
26436;BME280;15351;52.408;16.826;2023-04-07T19:51:10;101095.77;;;11.02;79.47
26436;BME280;15351;52.408;16.826;2023-04-07T19:53:37;101094.52;;;11.02;79.40
26436;BME280;15351;52.408;16.826;2023-04-07T19:56:21;101098.30;;;11.02;79.72
26436;BME280;15351;52.408;16.826;2023-04-07T19:59:33;101102.02;;;11.04;79.72
26436;BME280;15351;52.408;16.826;2023-04-07T20:01:59;101102.34;;;11.09;80.10
26436;BME280;15351;52.408;16.826;2023-04-07T20:04:26;101101.13;;;11.14;80.26
26436;BME280;15351;52.408;16.826;2023-04-07T20:10:12;101094.65;;;11.22;80.32
26436;BME280;15351;52.408;16.826;2023-04-07T20:13:17;101097.16;;;11.30;80.51
26436;BME280;15351;52.408;16.826;2023-04-07T20:16:36;101100.77;;;11.35;80.51
26436;BME280;15351;52.408;16.826;2023-04-07T20:23:11;101104.67;;;11.44;80.19
26436;BME280;15351;52.408;16.826;2023-04-07T20:34:51;101115.92;;;11.51;80.20
26436;BME280;15351;52.408;16.826;2023-04-07T20:38:16;101114.31;;;11.53;80.04
26436;BME280;15351;52.408;16.826;2023-04-07T20:42:20;101118.05;;;11.50;79.78
26436;BME280;15351;52.408;16.826;2023-04-07T20:44:54;101123.73;;;11.49;80.14
26436;BME280;15351;52.408;16.826;2023-04-07T20:48:13;101123.55;;;11.52;80.21
26436;BME280;15351;52.408;16.826;2023-04-07T20:51:00;101118.79;;;11.49;79.92
26436;BME280;15351;52.408;16.826;2023-04-07T20:53:54;101123.63;;;11.48;80.24
26436;BME280;15351;52.408;16.826;2023-04-07T20:56:54;101121.67;;;11.48;80.05
26436;BME280;15351;52.408;16.826;2023-04-07T21:00:25;101125.32;;;11.49;80.36
26436;BME280;15351;52.408;16.826;2023-04-07T21:03:38;101124.33;;;11.47;80.32
26436;BME280;15351;52.408;16.826;2023-04-07T21:06:44;101123.13;;;11.48;80.18
26436;BME280;15351;52.408;16.826;2023-04-07T21:09:22;101120.08;;;11.46;80.23
26436;BME280;15351;52.408;16.826;2023-04-07T21:12:10;101114.16;;;11.46;80.61
26436;BME280;15351;52.408;16.826;2023-04-07T21:18:06;101122.30;;;11.46;80.41
26436;BME280;15351;52.408;16.826;2023-04-07T21:25:04;101122.53;;;11.42;80.30
26436;BME280;15351;52.408;16.826;2023-04-07T21:31:06;101118.75;;;11.39;80.00
26436;BME280;15351;52.408;16.826;2023-04-07T21:34:19;101122.46;;;11.34;79.86
26436;BME280;15351;52.408;16.826;2023-04-07T21:37:38;101121.55;;;11.33;79.76
26436;BME280;15351;52.408;16.826;2023-04-07T21:40:33;101125.55;;;11.32;79.69
26436;BME280;15351;52.408;16.826;2023-04-07T21:47:50;101130.04;;;11.24;79.63
26436;BME280;15351;52.408;16.826;2023-04-07T22:17:09;101147.73;;;11.01;80.98
26436;BME280;15351;52.408;16.826;2023-04-07T22:19:37;101151.30;;;11.01;80.92